createdAt,value
2022-11-16T00:00:07.612Z,93923.00
2022-11-16T00:00:22.615Z,93919.00
2022-11-16T00:00:37.615Z,93917.00
2022-11-16T00:00:52.631Z,93915.00
2022-11-16T00:01:07.633Z,93921.00
2022-11-16T00:01:22.627Z,93921.00
2022-11-16T00:01:37.741Z,93923.00
2022-11-16T00:01:52.768Z,93921.00
2022-11-16T00:02:07.661Z,93925.00
2022-11-16T00:02:22.680Z,93921.00
2022-11-16T00:02:37.663Z,93923.00
2022-11-16T00:02:52.598Z,93929.00
2022-11-16T00:03:07.610Z,93925.00
2022-11-16T00:03:22.598Z,93921.00
2022-11-16T00:03:37.608Z,93921.00
2022-11-16T00:03:52.626Z,93919.00
2022-11-16T00:04:07.590Z,93919.00
2022-11-16T00:04:22.596Z,93915.00
2022-11-16T00:04:38.392Z,93923.00
2022-11-16T00:04:52.602Z,93925.00
2022-11-16T00:05:07.598Z,93925.00
2022-11-16T00:05:28.010Z,93919.00
2022-11-16T00:05:38.581Z,93921.00
2022-11-16T00:05:52.588Z,93919.00
2022-11-16T00:06:07.591Z,93921.00
2022-11-16T00:06:22.630Z,93923.00
2022-11-16T00:06:37.594Z,93923.00
2022-11-16T00:06:52.623Z,93925.00
2022-11-16T00:07:07.647Z,93925.00
2022-11-16T00:07:22.607Z,93925.00
2022-11-16T00:07:37.701Z,93927.00
2022-11-16T00:07:52.584Z,93925.00
2022-11-16T00:08:07.572Z,93927.00
2022-11-16T00:08:22.576Z,93929.00
2022-11-16T00:08:37.584Z,93925.00
2022-11-16T00:08:52.611Z,93931.00
2022-11-16T00:09:07.570Z,93929.00
2022-11-16T00:09:22.603Z,93929.00
2022-11-16T00:09:37.567Z,93925.00
2022-11-16T00:09:52.585Z,93921.00
2022-11-16T00:10:07.597Z,93923.00
2022-11-16T00:10:22.582Z,93923.00
2022-11-16T00:10:37.571Z,93925.00
2022-11-16T00:10:52.562Z,93927.00
2022-11-16T00:11:07.589Z,93933.00
2022-11-16T00:11:22.556Z,93934.00
2022-11-16T00:11:37.557Z,93929.00
2022-11-16T00:11:52.570Z,93931.00
2022-11-16T00:12:07.566Z,93933.00
2022-11-16T00:12:22.565Z,93938.00
2022-11-16T00:12:37.550Z,93933.00
2022-11-16T00:12:52.556Z,93933.00
2022-11-16T00:13:07.547Z,93931.00
2022-11-16T00:13:22.551Z,93933.00
2022-11-16T00:13:37.562Z,93934.00
2022-11-16T00:13:52.542Z,93934.00
2022-11-16T00:14:07.592Z,93933.00
2022-11-16T00:14:22.550Z,93934.00
2022-11-16T00:14:37.541Z,93938.00
2022-11-16T00:14:52.541Z,93936.00
2022-11-16T00:15:07.535Z,93940.00
2022-11-16T00:15:22.530Z,93938.00
2022-11-16T00:15:37.542Z,93938.00
2022-11-16T00:15:52.531Z,93942.00
2022-11-16T00:16:07.535Z,93940.00
2022-11-16T00:16:22.537Z,93940.00
2022-11-16T00:16:37.526Z,93938.00
2022-11-16T00:16:52.521Z,93933.00
2022-11-16T00:17:07.542Z,93933.00
2022-11-16T00:17:22.531Z,93933.00
2022-11-16T00:17:37.528Z,93934.00
2022-11-16T00:17:52.521Z,93933.00
2022-11-16T00:18:07.533Z,93934.00
2022-11-16T00:18:22.516Z,93934.00
2022-11-16T00:18:37.541Z,93936.00
2022-11-16T00:18:52.521Z,93936.00
2022-11-16T00:19:07.516Z,93938.00
2022-11-16T00:19:22.545Z,93938.00
2022-11-16T00:19:37.543Z,93938.00
2022-11-16T00:19:52.510Z,93942.00
2022-11-16T00:20:07.511Z,93942.00
2022-11-16T00:20:22.502Z,93940.00
2022-11-16T00:20:37.506Z,93944.00
2022-11-16T00:20:52.501Z,93942.00
2022-11-16T00:21:07.557Z,93946.00
2022-11-16T00:21:22.500Z,93946.00
2022-11-16T00:21:37.508Z,93946.00
2022-11-16T00:21:52.502Z,93946.00
2022-11-16T00:22:07.507Z,93948.00
2022-11-16T00:22:22.495Z,93948.00
2022-11-16T00:22:37.498Z,93950.00
2022-11-16T00:22:52.487Z,93952.00
2022-11-16T00:23:07.490Z,93952.00
2022-11-16T00:23:22.486Z,93952.00
2022-11-16T00:23:37.502Z,93954.00
2022-11-16T00:23:52.490Z,93954.00
2022-11-16T00:24:07.491Z,93952.00
2022-11-16T00:24:22.494Z,93952.00
2022-11-16T00:24:37.477Z,93952.00
2022-11-16T00:24:52.482Z,93952.00
2022-11-16T00:25:07.487Z,93954.00
2022-11-16T00:25:22.501Z,93956.00
2022-11-16T00:25:37.487Z,93956.00
2022-11-16T00:25:52.481Z,93956.00
2022-11-16T00:26:07.514Z,93956.00
2022-11-16T00:26:22.478Z,93960.00
2022-11-16T00:26:37.475Z,93956.00
2022-11-16T00:26:52.474Z,93956.00
2022-11-16T00:27:07.473Z,93960.00
2022-11-16T00:27:22.484Z,93958.00
2022-11-16T00:27:37.477Z,93960.00
2022-11-16T00:27:52.461Z,93962.00
2022-11-16T00:28:07.461Z,93960.00
2022-11-16T00:28:22.471Z,93958.00
2022-11-16T00:28:37.499Z,93956.00
2022-11-16T00:28:52.470Z,93952.00
2022-11-16T00:29:07.461Z,93950.00
2022-11-16T00:29:22.466Z,93948.00
2022-11-16T00:29:37.455Z,93946.00
2022-11-16T00:29:52.476Z,93944.00
2022-11-16T00:30:07.467Z,93946.00
2022-11-16T00:30:22.447Z,93948.00
2022-11-16T00:30:37.458Z,93946.00
2022-11-16T00:30:52.471Z,93948.00
2022-11-16T00:31:07.463Z,93946.00
2022-11-16T00:31:22.503Z,93950.00
2022-11-16T00:31:37.452Z,93944.00
2022-11-16T00:31:52.450Z,93946.00
2022-11-16T00:32:07.437Z,93948.00
2022-11-16T00:32:22.436Z,93944.00
2022-11-16T00:32:37.445Z,93944.00
2022-11-16T00:32:52.457Z,93946.00
2022-11-16T00:33:07.442Z,93944.00
2022-11-16T00:33:22.432Z,93944.00
2022-11-16T00:33:37.446Z,93944.00
2022-11-16T00:33:52.457Z,93944.00
2022-11-16T00:34:07.430Z,93944.00
2022-11-16T00:34:22.451Z,93942.00
2022-11-16T00:34:37.441Z,93944.00
2022-11-16T00:34:52.431Z,93946.00
2022-11-16T00:35:07.439Z,93940.00
2022-11-16T00:35:22.421Z,93942.00
2022-11-16T00:35:37.441Z,93936.00
2022-11-16T00:35:52.425Z,93938.00
2022-11-16T00:36:07.421Z,93940.00
2022-11-16T00:36:22.428Z,93942.00
2022-11-16T00:36:37.446Z,93942.00
2022-11-16T00:36:52.420Z,93942.00
2022-11-16T00:37:07.416Z,93942.00
2022-11-16T00:37:22.412Z,93942.00
2022-11-16T00:37:37.410Z,93944.00
2022-11-16T00:37:52.475Z,93942.00
2022-11-16T00:38:07.441Z,93942.00
2022-11-16T00:38:22.414Z,93940.00
2022-11-16T00:38:37.411Z,93944.00
2022-11-16T00:38:52.414Z,93938.00
2022-11-16T00:39:07.421Z,93936.00
2022-11-16T00:39:22.404Z,93934.00
2022-11-16T00:39:37.416Z,93931.00
2022-11-16T00:39:52.407Z,93931.00
2022-11-16T00:40:07.405Z,93929.00
2022-11-16T00:40:22.413Z,93929.00
2022-11-16T00:40:37.406Z,93933.00
2022-11-16T00:40:52.393Z,93936.00
2022-11-16T00:41:07.395Z,93936.00
2022-11-16T00:41:22.401Z,93936.00
2022-11-16T00:41:37.390Z,93934.00
2022-11-16T00:41:52.397Z,93940.00
2022-11-16T00:42:07.391Z,93942.00
2022-11-16T00:42:22.386Z,93940.00
2022-11-16T00:42:37.390Z,93938.00
2022-11-16T00:42:52.387Z,93938.00
2022-11-16T00:43:07.426Z,93936.00
2022-11-16T00:43:22.385Z,93933.00
2022-11-16T00:43:37.386Z,93931.00
2022-11-16T00:43:52.420Z,93929.00
2022-11-16T00:44:07.390Z,93929.00
2022-11-16T00:44:22.405Z,93927.00
2022-11-16T00:44:37.370Z,93923.00
2022-11-16T00:44:52.380Z,93919.00
2022-11-16T00:45:07.395Z,93915.00
2022-11-16T00:45:22.366Z,93913.00
2022-11-16T00:45:37.386Z,93911.00
2022-11-16T00:45:52.360Z,93909.00
2022-11-16T00:46:07.375Z,93909.00
2022-11-16T00:46:22.370Z,93909.00
2022-11-16T00:46:37.365Z,93911.00
2022-11-16T00:46:52.360Z,93913.00
2022-11-16T00:47:07.366Z,93915.00
2022-11-16T00:47:22.356Z,93917.00
2022-11-16T00:47:37.368Z,93921.00
2022-11-16T00:47:55.279Z,93919.00
2022-11-16T00:48:08.361Z,93917.00
2022-11-16T00:48:22.352Z,93919.00
2022-11-16T00:48:37.361Z,93919.00
2022-11-16T00:48:52.347Z,93919.00
2022-11-16T00:49:07.384Z,93921.00
2022-11-16T00:49:22.348Z,93921.00
2022-11-16T00:49:37.346Z,93919.00
2022-11-16T00:49:52.350Z,93917.00
2022-11-16T00:50:07.362Z,93913.00
2022-11-16T00:50:22.344Z,93911.00
2022-11-16T00:50:37.345Z,93911.00
2022-11-16T00:50:52.342Z,93907.00
2022-11-16T00:51:07.335Z,93905.00
2022-11-16T00:51:22.346Z,93903.00
2022-11-16T00:51:37.336Z,93903.00
2022-11-16T00:51:52.346Z,93903.00
2022-11-16T00:52:07.326Z,93905.00
2022-11-16T00:52:22.336Z,93905.00
2022-11-16T00:52:37.340Z,93905.00
2022-11-16T00:52:52.321Z,93903.00
2022-11-16T00:53:07.334Z,93901.00
2022-11-16T00:53:22.331Z,93899.00
2022-11-16T00:53:37.331Z,93899.00
2022-11-16T00:53:52.321Z,93899.00
2022-11-16T00:54:07.321Z,93899.00
2022-11-16T00:54:22.378Z,93899.00
2022-11-16T00:54:37.326Z,93899.00
2022-11-16T00:54:52.323Z,93901.00
2022-11-16T00:55:07.337Z,93901.00
2022-11-16T00:55:22.327Z,93901.00
2022-11-16T00:55:37.320Z,93901.00
2022-11-16T00:55:52.309Z,93901.00
2022-11-16T00:56:07.316Z,93901.00
2022-11-16T00:56:22.321Z,93901.00
2022-11-16T00:56:37.319Z,93899.00
2022-11-16T00:56:52.328Z,93901.00
2022-11-16T00:57:07.311Z,93899.00
2022-11-16T00:57:22.306Z,93905.00
2022-11-16T00:57:37.303Z,93913.00
2022-11-16T00:57:52.301Z,93915.00
2022-11-16T00:58:07.297Z,93917.00
2022-11-16T00:58:22.296Z,93915.00
2022-11-16T00:58:37.297Z,93913.00
2022-11-16T00:58:52.300Z,93915.00
2022-11-16T00:59:07.303Z,93917.00
2022-11-16T00:59:22.303Z,93915.00
2022-11-16T00:59:37.319Z,93911.00
2022-11-16T00:59:52.287Z,93913.00
2022-11-16T01:00:07.288Z,93911.00
2022-11-16T01:00:22.315Z,93909.00
2022-11-16T01:00:37.300Z,93905.00
2022-11-16T01:00:52.363Z,93903.00
2022-11-16T01:01:07.404Z,93897.00
2022-11-16T01:01:22.311Z,93887.00
2022-11-16T01:01:37.356Z,93887.00
2022-11-16T01:01:52.361Z,93887.00
2022-11-16T01:02:07.275Z,93889.00
2022-11-16T01:02:22.282Z,93893.00
2022-11-16T01:02:37.277Z,93897.00
2022-11-16T01:02:52.276Z,93897.00
2022-11-16T01:03:07.281Z,93901.00
2022-11-16T01:03:22.278Z,93899.00
2022-11-16T01:03:37.266Z,93897.00
2022-11-16T01:03:52.278Z,93897.00
2022-11-16T01:04:07.271Z,93893.00
2022-11-16T01:04:22.268Z,93891.00
2022-11-16T01:04:37.265Z,93889.00
2022-11-16T01:04:52.262Z,93886.00
2022-11-16T01:05:07.275Z,93882.00
2022-11-16T01:05:22.265Z,93876.00
2022-11-16T01:05:37.287Z,93878.00
2022-11-16T01:05:52.253Z,93876.00
2022-11-16T01:06:07.264Z,93876.00
2022-11-16T01:06:22.266Z,93884.00
2022-11-16T01:06:37.260Z,93889.00
2022-11-16T01:06:52.268Z,93893.00
2022-11-16T01:07:07.289Z,93893.00
2022-11-16T01:07:22.279Z,93895.00
2022-11-16T01:07:37.299Z,93897.00
2022-11-16T01:07:52.258Z,93897.00
2022-11-16T01:08:07.246Z,93897.00
2022-11-16T01:08:22.246Z,93897.00
2022-11-16T01:08:37.308Z,93897.00
2022-11-16T01:08:52.251Z,93897.00
2022-11-16T01:09:07.250Z,93897.00
2022-11-16T01:09:22.244Z,93899.00
2022-11-16T01:09:37.236Z,93899.00
2022-11-16T01:09:52.250Z,93899.00
2022-11-16T01:10:07.225Z,93899.00
2022-11-16T01:10:22.231Z,93895.00
2022-11-16T01:10:37.247Z,93893.00
2022-11-16T01:10:52.274Z,93889.00
2022-11-16T01:11:07.243Z,93887.00
2022-11-16T01:11:22.237Z,93887.00
2022-11-16T01:11:37.266Z,93886.00
2022-11-16T01:11:52.218Z,93886.00
2022-11-16T01:12:07.218Z,93880.00
2022-11-16T01:12:22.220Z,93874.00
2022-11-16T01:12:37.223Z,93872.00
2022-11-16T01:12:52.215Z,93870.00
2022-11-16T01:13:07.229Z,93870.00
2022-11-16T01:13:22.211Z,93876.00
2022-11-16T01:13:37.218Z,93887.00
2022-11-16T01:13:52.213Z,93895.00
2022-11-16T01:14:07.222Z,93899.00
2022-11-16T01:14:22.228Z,93899.00
2022-11-16T01:14:37.236Z,93899.00
2022-11-16T01:14:52.206Z,93897.00
2022-11-16T01:15:07.200Z,93899.00
2022-11-16T01:15:22.213Z,93895.00
2022-11-16T01:15:37.226Z,93887.00
2022-11-16T01:15:52.211Z,93886.00
2022-11-16T01:16:07.206Z,93884.00
2022-11-16T01:16:22.197Z,93882.00
2022-11-16T01:16:37.205Z,93884.00
2022-11-16T01:16:52.232Z,93887.00
2022-11-16T01:17:07.202Z,93884.00
2022-11-16T01:17:22.199Z,93880.00
2022-11-16T01:17:37.205Z,93878.00
2022-11-16T01:17:52.200Z,93876.00
2022-11-16T01:18:07.185Z,93874.00
2022-11-16T01:18:22.190Z,93868.00
2022-11-16T01:18:37.186Z,93866.00
2022-11-16T01:18:52.185Z,93864.00
2022-11-16T01:19:07.175Z,93862.00
2022-11-16T01:19:22.197Z,93862.00
2022-11-16T01:19:37.196Z,93860.00
2022-11-16T01:19:52.188Z,93860.00
2022-11-16T01:20:07.192Z,93860.00
2022-11-16T01:20:22.191Z,93862.00
2022-11-16T01:20:37.178Z,93860.00
2022-11-16T01:20:52.177Z,93866.00
2022-11-16T01:21:07.196Z,93864.00
2022-11-16T01:21:22.187Z,93868.00
2022-11-16T01:21:37.173Z,93870.00
2022-11-16T01:21:52.171Z,93870.00
2022-11-16T01:22:07.186Z,93872.00
2022-11-16T01:22:22.169Z,93874.00
2022-11-16T01:22:37.173Z,93874.00
2022-11-16T01:22:52.174Z,93876.00
2022-11-16T01:23:07.165Z,93878.00
2022-11-16T01:23:22.166Z,93876.00
2022-11-16T01:23:37.158Z,93872.00
2022-11-16T01:23:52.165Z,93874.00
2022-11-16T01:24:07.162Z,93872.00
2022-11-16T01:24:22.156Z,93870.00
2022-11-16T01:24:37.155Z,93868.00
2022-11-16T01:24:52.157Z,93868.00
2022-11-16T01:25:07.149Z,93864.00
2022-11-16T01:25:22.166Z,93866.00
2022-11-16T01:25:37.161Z,93866.00
2022-11-16T01:25:52.155Z,93864.00
2022-11-16T01:26:07.146Z,93870.00
2022-11-16T01:26:22.157Z,93872.00
2022-11-16T01:26:37.153Z,93872.00
2022-11-16T01:26:52.152Z,93876.00
2022-11-16T01:27:07.135Z,93874.00
2022-11-16T01:27:22.176Z,93874.00
2022-11-16T01:27:37.135Z,93870.00
2022-11-16T01:27:52.148Z,93874.00
2022-11-16T01:28:07.165Z,93870.00
2022-11-16T01:28:22.140Z,93868.00
2022-11-16T01:28:37.276Z,93864.00
2022-11-16T01:28:52.141Z,93866.00
2022-11-16T01:29:07.131Z,93866.00
2022-11-16T01:29:22.125Z,93862.00
2022-11-16T01:29:37.120Z,93864.00
2022-11-16T01:29:52.161Z,93862.00
2022-11-16T01:30:07.120Z,93862.00
2022-11-16T01:30:22.136Z,93860.00
2022-11-16T01:30:37.126Z,93860.00
2022-11-16T01:30:52.120Z,93860.00
2022-11-16T01:31:07.118Z,93858.00
2022-11-16T01:31:22.138Z,93858.00
2022-11-16T01:31:37.119Z,93856.00
2022-11-16T01:31:52.127Z,93848.00
2022-11-16T01:32:07.111Z,93846.00
2022-11-16T01:32:22.111Z,93848.00
2022-11-16T01:32:37.107Z,93846.00
2022-11-16T01:32:52.112Z,93846.00
2022-11-16T01:33:07.108Z,93846.00
2022-11-16T01:33:22.132Z,93846.00
2022-11-16T01:33:37.126Z,93846.00
2022-11-16T01:33:52.113Z,93856.00
2022-11-16T01:34:07.128Z,93858.00
2022-11-16T01:34:22.102Z,93858.00
2022-11-16T01:34:37.109Z,93858.00
2022-11-16T01:34:52.097Z,93860.00
2022-11-16T01:35:07.093Z,93860.00
2022-11-16T01:35:22.097Z,93864.00
2022-11-16T01:35:37.128Z,93864.00
2022-11-16T01:35:52.091Z,93864.00
2022-11-16T01:36:07.093Z,93864.00
2022-11-16T01:36:22.086Z,93862.00
2022-11-16T01:36:37.162Z,93862.00
2022-11-16T01:36:52.130Z,93862.00
2022-11-16T01:37:07.094Z,93862.00
2022-11-16T01:37:22.085Z,93858.00
2022-11-16T01:37:37.075Z,93848.00
2022-11-16T01:37:52.085Z,93856.00
2022-11-16T01:38:07.076Z,93858.00
2022-11-16T01:38:24.874Z,93848.00
2022-11-16T01:38:38.077Z,93856.00
2022-11-16T01:38:52.077Z,93846.00
2022-11-16T01:39:07.085Z,93844.00
2022-11-16T01:39:22.113Z,93842.00
2022-11-16T01:39:37.071Z,93842.00
2022-11-16T01:39:52.076Z,93842.00
2022-11-16T01:40:07.062Z,93838.00
2022-11-16T01:40:22.061Z,93840.00
2022-11-16T01:40:37.066Z,93838.00
2022-11-16T01:40:52.063Z,93834.00
2022-11-16T01:41:07.067Z,93838.00
2022-11-16T01:41:22.062Z,93840.00
2022-11-16T01:41:37.061Z,93840.00
2022-11-16T01:41:52.060Z,93842.00
2022-11-16T01:42:07.049Z,93846.00
2022-11-16T01:42:22.067Z,93846.00
2022-11-16T01:42:37.052Z,93858.00
2022-11-16T01:42:52.051Z,93848.00
2022-11-16T01:43:07.048Z,93858.00
2022-11-16T01:43:22.046Z,93856.00
2022-11-16T01:43:37.048Z,93848.00
2022-11-16T01:43:52.040Z,93848.00
2022-11-16T01:44:07.062Z,93856.00
2022-11-16T01:44:22.042Z,93842.00
2022-11-16T01:44:37.107Z,93840.00
2022-11-16T01:44:52.041Z,93840.00
2022-11-16T01:45:07.041Z,93840.00
2022-11-16T01:45:22.047Z,93836.00
2022-11-16T01:45:37.065Z,93834.00
2022-11-16T01:45:52.042Z,93831.00
2022-11-16T01:46:07.046Z,93831.00
2022-11-16T01:46:22.039Z,93827.00
2022-11-16T01:46:37.030Z,93829.00
2022-11-16T01:46:52.026Z,93834.00
2022-11-16T01:47:07.046Z,93833.00
2022-11-16T01:47:22.051Z,93834.00
2022-11-16T01:47:37.037Z,93834.00
2022-11-16T01:47:52.092Z,93836.00
2022-11-16T01:48:07.044Z,93840.00
2022-11-16T01:48:22.089Z,93838.00
2022-11-16T01:48:37.481Z,93844.00
2022-11-16T01:48:52.119Z,93842.00
2022-11-16T01:49:07.031Z,93844.00
2022-11-16T01:49:22.018Z,93844.00
2022-11-16T01:49:37.017Z,93840.00
2022-11-16T01:49:52.042Z,93842.00
2022-11-16T01:50:07.022Z,93838.00
2022-11-16T01:50:22.013Z,93834.00
2022-11-16T01:50:37.013Z,93834.00
2022-11-16T01:50:52.012Z,93833.00
2022-11-16T01:51:07.007Z,93834.00
2022-11-16T01:51:22.004Z,93840.00
2022-11-16T01:51:37.008Z,93838.00
2022-11-16T01:51:52.016Z,93838.00
2022-11-16T01:52:07.003Z,93836.00
2022-11-16T01:52:22.001Z,93836.00
2022-11-16T01:52:37.012Z,93833.00
2022-11-16T01:52:51.999Z,93833.00
2022-11-16T01:53:07.001Z,93831.00
2022-11-16T01:53:22.002Z,93831.00
2022-11-16T01:53:36.998Z,93829.00
2022-11-16T01:53:51.986Z,93831.00
2022-11-16T01:54:06.995Z,93833.00
2022-11-16T01:54:22.002Z,93833.00
2022-11-16T01:54:37.018Z,93834.00
2022-11-16T01:54:52.050Z,93836.00
2022-11-16T01:55:06.986Z,93838.00
2022-11-16T01:55:21.994Z,93840.00
2022-11-16T01:55:36.989Z,93840.00
2022-11-16T01:55:51.983Z,93838.00
2022-11-16T01:56:06.987Z,93838.00
2022-11-16T01:56:21.981Z,93836.00
2022-11-16T01:56:36.987Z,93834.00
2022-11-16T01:56:51.972Z,93825.00
2022-11-16T01:57:06.976Z,93821.00
2022-11-16T01:57:21.996Z,93817.00
2022-11-16T01:57:36.970Z,93815.00
2022-11-16T01:57:51.977Z,93811.00
2022-11-16T01:58:06.966Z,93813.00
2022-11-16T01:58:21.975Z,93813.00
2022-11-16T01:58:37.035Z,93819.00
2022-11-16T01:58:51.965Z,93825.00
2022-11-16T01:59:06.972Z,93823.00
2022-11-16T01:59:21.961Z,93825.00
2022-11-16T01:59:36.963Z,93827.00
2022-11-16T01:59:51.963Z,93825.00
2022-11-16T02:00:06.995Z,93825.00
2022-11-16T02:00:21.961Z,93819.00
2022-11-16T02:00:36.956Z,93817.00
2022-11-16T02:00:52.014Z,93813.00
2022-11-16T02:01:06.998Z,93813.00
2022-11-16T02:01:22.052Z,93811.00
2022-11-16T02:01:37.039Z,93813.00
2022-11-16T02:01:51.958Z,93817.00
2022-11-16T02:02:06.972Z,93819.00
2022-11-16T02:02:21.947Z,93823.00
2022-11-16T02:02:36.944Z,93823.00
2022-11-16T02:02:51.957Z,93827.00
2022-11-16T02:03:06.950Z,93821.00
2022-11-16T02:03:21.937Z,93821.00
2022-11-16T02:03:36.936Z,93819.00
2022-11-16T02:03:51.938Z,93817.00
2022-11-16T02:04:06.946Z,93819.00
2022-11-16T02:04:21.937Z,93821.00
2022-11-16T02:04:36.940Z,93821.00
2022-11-16T02:04:51.942Z,93821.00
2022-11-16T02:05:06.931Z,93823.00
2022-11-16T02:05:21.932Z,93827.00
2022-11-16T02:05:36.928Z,93825.00
2022-11-16T02:05:51.930Z,93829.00
2022-11-16T02:06:06.929Z,93831.00
2022-11-16T02:06:21.930Z,93833.00
2022-11-16T02:06:36.927Z,93836.00
2022-11-16T02:06:51.988Z,93838.00
2022-11-16T02:07:06.966Z,93834.00
2022-11-16T02:07:22.024Z,93833.00
2022-11-16T02:07:36.970Z,93831.00
2022-11-16T02:07:51.917Z,93831.00
2022-11-16T02:08:06.946Z,93831.00
2022-11-16T02:08:21.922Z,93827.00
2022-11-16T02:08:36.920Z,93829.00
2022-11-16T02:08:51.915Z,93825.00
2022-11-16T02:09:06.905Z,93823.00
2022-11-16T02:09:21.915Z,93823.00
2022-11-16T02:09:36.915Z,93823.00
2022-11-16T02:09:51.925Z,93817.00
2022-11-16T02:10:06.919Z,93819.00
2022-11-16T02:10:21.909Z,93817.00
2022-11-16T02:10:36.900Z,93815.00
2022-11-16T02:10:51.904Z,93817.00
2022-11-16T02:11:06.900Z,93815.00
2022-11-16T02:11:21.911Z,93817.00
2022-11-16T02:11:36.897Z,93821.00
2022-11-16T02:11:51.908Z,93823.00
2022-11-16T02:12:06.891Z,93823.00
2022-11-16T02:12:21.890Z,93827.00
2022-11-16T02:12:36.887Z,93831.00
2022-11-16T02:12:51.897Z,93829.00
2022-11-16T02:13:06.885Z,93831.00
2022-11-16T02:13:21.923Z,93831.00
2022-11-16T02:13:36.890Z,93829.00
2022-11-16T02:13:51.885Z,93831.00
2022-11-16T02:14:06.881Z,93829.00
2022-11-16T02:14:21.880Z,93829.00
2022-11-16T02:14:36.877Z,93831.00
2022-11-16T02:14:51.910Z,93829.00
2022-11-16T02:15:06.892Z,93827.00
2022-11-16T02:15:21.878Z,93823.00
2022-11-16T02:15:36.890Z,93825.00
2022-11-16T02:15:51.878Z,93819.00
2022-11-16T02:16:06.875Z,93821.00
2022-11-16T02:16:21.875Z,93817.00
2022-11-16T02:16:36.885Z,93817.00
2022-11-16T02:16:51.876Z,93815.00
2022-11-16T02:17:06.872Z,93813.00
2022-11-16T02:17:21.870Z,93817.00
2022-11-16T02:17:36.867Z,93815.00
2022-11-16T02:17:51.866Z,93821.00
2022-11-16T02:18:06.865Z,93825.00
2022-11-16T02:18:21.866Z,93829.00
2022-11-16T02:18:37.029Z,93831.00
2022-11-16T02:18:51.868Z,93833.00
2022-11-16T02:19:06.855Z,93831.00
2022-11-16T02:19:21.860Z,93833.00
2022-11-16T02:19:36.847Z,93833.00
2022-11-16T02:19:51.851Z,93833.00
2022-11-16T02:20:06.901Z,93834.00
2022-11-16T02:20:21.865Z,93833.00
2022-11-16T02:20:36.847Z,93834.00
2022-11-16T02:20:51.851Z,93833.00
2022-11-16T02:21:06.846Z,93829.00
2022-11-16T02:21:21.856Z,93825.00
2022-11-16T02:21:36.841Z,93821.00
2022-11-16T02:21:51.840Z,93817.00
2022-11-16T02:22:06.844Z,93815.00
2022-11-16T02:22:21.841Z,93815.00
2022-11-16T02:22:36.843Z,93815.00
2022-11-16T02:22:51.862Z,93813.00
2022-11-16T02:23:06.841Z,93813.00
2022-11-16T02:23:21.867Z,93815.00
2022-11-16T02:23:36.830Z,93817.00
2022-11-16T02:23:51.895Z,93817.00
2022-11-16T02:24:06.870Z,93819.00
2022-11-16T02:24:21.825Z,93821.00
2022-11-16T02:24:36.826Z,93823.00
2022-11-16T02:24:51.826Z,93821.00
2022-11-16T02:25:06.831Z,93823.00
2022-11-16T02:25:21.840Z,93821.00
2022-11-16T02:25:36.825Z,93825.00
2022-11-16T02:25:51.820Z,93823.00
2022-11-16T02:26:06.820Z,93819.00
2022-11-16T02:26:21.820Z,93815.00
2022-11-16T02:26:36.815Z,93813.00
2022-11-16T02:26:51.815Z,93809.00
2022-11-16T02:27:06.821Z,93807.00
2022-11-16T02:27:21.809Z,93805.00
2022-11-16T02:27:36.809Z,93805.00
2022-11-16T02:27:51.807Z,93805.00
2022-11-16T02:28:06.804Z,93807.00
2022-11-16T02:28:21.805Z,93813.00
2022-11-16T02:28:36.947Z,93815.00
2022-11-16T02:28:51.804Z,93817.00
2022-11-16T02:29:06.800Z,93817.00
2022-11-16T02:29:21.791Z,93819.00
2022-11-16T02:29:36.794Z,93819.00
2022-11-16T02:29:51.798Z,93819.00
2022-11-16T02:30:06.792Z,93819.00
2022-11-16T02:30:21.835Z,93817.00
2022-11-16T02:30:36.801Z,93813.00
2022-11-16T02:30:51.796Z,93813.00
2022-11-16T02:31:06.791Z,93811.00
2022-11-16T02:31:21.788Z,93809.00
2022-11-16T02:31:36.787Z,93807.00
2022-11-16T02:31:51.787Z,93803.00
2022-11-16T02:32:06.780Z,93801.00
2022-11-16T02:32:21.774Z,93801.00
2022-11-16T02:32:36.790Z,93801.00
2022-11-16T02:32:51.777Z,93797.00
2022-11-16T02:33:06.776Z,93795.00
2022-11-16T02:33:21.780Z,93797.00
2022-11-16T02:33:36.771Z,93793.00
2022-11-16T02:33:51.775Z,93793.00
2022-11-16T02:34:06.775Z,93795.00
2022-11-16T02:34:21.777Z,93799.00
2022-11-16T02:34:36.767Z,93801.00
2022-11-16T02:34:51.773Z,93805.00
2022-11-16T02:35:06.755Z,93803.00
2022-11-16T02:35:21.755Z,93803.00
2022-11-16T02:35:36.801Z,93805.00
2022-11-16T02:35:51.773Z,93809.00
2022-11-16T02:36:06.770Z,93807.00
2022-11-16T02:36:21.760Z,93805.00
2022-11-16T02:36:36.761Z,93809.00
2022-11-16T02:36:51.766Z,93805.00
2022-11-16T02:37:06.755Z,93797.00
2022-11-16T02:37:21.766Z,93797.00
2022-11-16T02:37:36.770Z,93791.00
2022-11-16T02:37:51.752Z,93789.00
2022-11-16T02:38:06.746Z,93791.00
2022-11-16T02:38:21.744Z,93786.00
2022-11-16T02:38:36.936Z,93784.00
2022-11-16T02:38:51.744Z,93786.00
2022-11-16T02:39:06.744Z,93786.00
2022-11-16T02:39:21.751Z,93789.00
2022-11-16T02:39:36.740Z,93793.00
2022-11-16T02:39:51.739Z,93789.00
2022-11-16T02:40:06.742Z,93793.00
2022-11-16T02:40:21.741Z,93799.00
2022-11-16T02:40:36.780Z,93803.00
2022-11-16T02:40:51.765Z,93807.00
2022-11-16T02:41:06.735Z,93807.00
2022-11-16T02:41:21.730Z,93805.00
2022-11-16T02:41:36.734Z,93805.00
2022-11-16T02:41:51.725Z,93807.00
2022-11-16T02:42:06.735Z,93805.00
2022-11-16T02:42:21.734Z,93803.00
2022-11-16T02:42:36.718Z,93801.00
2022-11-16T02:42:51.725Z,93799.00
2022-11-16T02:43:06.719Z,93793.00
2022-11-16T02:43:21.720Z,93793.00
2022-11-16T02:43:36.715Z,93795.00
2022-11-16T02:43:51.719Z,93791.00
2022-11-16T02:44:06.719Z,93791.00
2022-11-16T02:44:21.719Z,93789.00
2022-11-16T02:44:36.695Z,93787.00
2022-11-16T02:44:51.711Z,93786.00
2022-11-16T02:45:06.706Z,93782.00
2022-11-16T02:45:21.709Z,93782.00
2022-11-16T02:45:36.704Z,93780.00
2022-11-16T02:45:51.717Z,93778.00
2022-11-16T02:46:06.736Z,93780.00
2022-11-16T02:46:21.705Z,93780.00
2022-11-16T02:46:36.711Z,93782.00
2022-11-16T02:46:51.699Z,93784.00
2022-11-16T02:47:06.705Z,93787.00
2022-11-16T02:47:21.715Z,93791.00
2022-11-16T02:47:36.700Z,93795.00
2022-11-16T02:47:51.696Z,93797.00
2022-11-16T02:48:06.705Z,93799.00
2022-11-16T02:48:21.693Z,93799.00
2022-11-16T02:48:36.873Z,93799.00
2022-11-16T02:48:51.688Z,93799.00
2022-11-16T02:49:06.684Z,93799.00
2022-11-16T02:49:21.687Z,93799.00
2022-11-16T02:49:36.678Z,93801.00
2022-11-16T02:49:51.689Z,93799.00
2022-11-16T02:50:06.679Z,93797.00
2022-11-16T02:50:21.680Z,93795.00
2022-11-16T02:50:36.679Z,93793.00
2022-11-16T02:50:51.677Z,93793.00
2022-11-16T02:51:06.685Z,93791.00
2022-11-16T02:51:21.694Z,93793.00
2022-11-16T02:51:36.685Z,93789.00
2022-11-16T02:51:51.675Z,93789.00
2022-11-16T02:52:06.676Z,93787.00
2022-11-16T02:52:21.684Z,93786.00
2022-11-16T02:52:36.671Z,93784.00
2022-11-16T02:52:51.669Z,93787.00
2022-11-16T02:53:06.667Z,93787.00
2022-11-16T02:53:21.715Z,93787.00
2022-11-16T02:53:36.671Z,93787.00
2022-11-16T02:53:51.693Z,93789.00
2022-11-16T02:54:06.659Z,93789.00
2022-11-16T02:54:21.690Z,93791.00
2022-11-16T02:54:36.654Z,93791.00
2022-11-16T02:54:51.669Z,93791.00
2022-11-16T02:55:06.658Z,93791.00
2022-11-16T02:55:21.654Z,93789.00
2022-11-16T02:55:36.688Z,93787.00
2022-11-16T02:55:51.673Z,93787.00
2022-11-16T02:56:06.654Z,93787.00